Marcos Paz, Argentina
Current Conditions -  °F | °C
As of 6:00 PM on Tuesday 21 Oct 2014 (Local Time) from SANT Reporting Station
Broken Clouds Broken Clouds  
Wind Chill: 90°   Ceiling: 20000
Heat Index: 90°   Visibility: 6mi
Dew Point: 61°   Wind: 18mph
Humidity: 38%   Direction: 20°NNE
Pressure: 29.88"   Gusts: 28mph
Location:  26.82°S, 65.28°W
Report Text: SANT 212100Z 02016G24KT 9999 SCT040 BKN200 32/16 Q1012
Loading
Personal Weather Stations






























Interactive Weather Map
Tropical Storm Tracking
New forecast layout! Learn more

10-Day Weather Forecast

Advertisements
Track Severe Weather on mobile